sensor_id;sensor_type;location;lat;lon;timestamp;pressure;altitude;pressure_sealevel;temperature;humidity
32638;BME280;19045;52.268;10.506;2022-09-09T00:01:38;100036.28;;;14.59;100.00
32638;BME280;19045;52.268;10.506;2022-09-09T00:04:13;100027.47;;;14.54;100.00
32638;BME280;19045;52.268;10.506;2022-09-09T00:06:43;100030.97;;;14.54;100.00
32638;BME280;19045;52.268;10.506;2022-09-09T00:09:12;100029.84;;;14.55;100.00
32638;BME280;19045;52.268;10.506;2022-09-09T00:11:43;100027.38;;;14.59;100.00
32638;BME280;19045;52.268;10.506;2022-09-09T00:14:19;100036.25;;;14.64;100.00
32638;BME280;19045;52.268;10.506;2022-09-09T00:16:52;100032.63;;;14.69;100.00
32638;BME280;19045;52.268;10.506;2022-09-09T00:19:24;100035.66;;;14.67;100.00
32638;BME280;19045;52.268;10.506;2022-09-09T00:22:02;100031.81;;;14.68;100.00
32638;BME280;19045;52.268;10.506;2022-09-09T00:24:40;100031.69;;;14.78;100.00
32638;BME280;19045;52.268;10.506;2022-09-09T00:27:16;100030.91;;;14.78;100.00
32638;BME280;19045;52.268;10.506;2022-09-09T00:29:47;100024.16;;;14.75;100.00
32638;BME280;19045;52.268;10.506;2022-09-09T00:32:20;100025.19;;;14.79;100.00
32638;BME280;19045;52.268;10.506;2022-09-09T00:34:49;100026.00;;;14.80;100.00
32638;BME280;19045;52.268;10.506;2022-09-09T00:37:19;100025.50;;;14.78;100.00
32638;BME280;19045;52.268;10.506;2022-09-09T00:39:48;100027.00;;;14.84;100.00
32638;BME280;19045;52.268;10.506;2022-09-09T00:42:23;100029.19;;;14.82;100.00
32638;BME280;19045;52.268;10.506;2022-09-09T00:44:59;100038.09;;;14.82;100.00
32638;BME280;19045;52.268;10.506;2022-09-09T00:47:43;100029.50;;;14.80;100.00
32638;BME280;19045;52.268;10.506;2022-09-09T00:50:25;100023.38;;;14.75;100.00
32638;BME280;19045;52.268;10.506;2022-09-09T00:53:02;100021.66;;;14.79;100.00
32638;BME280;19045;52.268;10.506;2022-09-09T00:55:39;100021.88;;;14.82;100.00
32638;BME280;19045;52.268;10.506;2022-09-09T00:58:09;100020.34;;;14.76;100.00
32638;BME280;19045;52.268;10.506;2022-09-09T01:00:40;100020.13;;;14.73;100.00
32638;BME280;19045;52.268;10.506;2022-09-09T01:03:29;100025.56;;;14.73;100.00
32638;BME280;19045;52.268;10.506;2022-09-09T01:06:01;100026.13;;;14.70;100.00
32638;BME280;19045;52.268;10.506;2022-09-09T01:09:02;100028.94;;;14.65;100.00
32638;BME280;19045;52.268;10.506;2022-09-09T01:11:37;100035.22;;;14.60;100.00
32638;BME280;19045;52.268;10.506;2022-09-09T01:14:15;100030.88;;;14.59;100.00
32638;BME280;19045;52.268;10.506;2022-09-09T01:16:46;100025.84;;;14.53;100.00
32638;BME280;19045;52.268;10.506;2022-09-09T01:19:20;100030.88;;;14.59;100.00
32638;BME280;19045;52.268;10.506;2022-09-09T01:21:58;100034.13;;;14.61;100.00
32638;BME280;19045;52.268;10.506;2022-09-09T01:24:36;100040.84;;;14.64;100.00
32638;BME280;19045;52.268;10.506;2022-09-09T01:27:06;100037.59;;;14.62;100.00
32638;BME280;19045;52.268;10.506;2022-09-09T01:29:34;100031.69;;;14.60;100.00
32638;BME280;19045;52.268;10.506;2022-09-09T01:32:35;100032.00;;;14.58;100.00
32638;BME280;19045;52.268;10.506;2022-09-09T01:34:51;100035.06;;;14.52;100.00
32638;BME280;19045;52.268;10.506;2022-09-09T01:37:18;100031.84;;;14.49;100.00
32638;BME280;19045;52.268;10.506;2022-09-09T01:39:45;100030.22;;;14.48;100.00
32638;BME280;19045;52.268;10.506;2022-09-09T01:42:14;100023.25;;;14.47;100.00
32638;BME280;19045;52.268;10.506;2022-09-09T01:44:41;100027.13;;;14.41;100.00
32638;BME280;19045;52.268;10.506;2022-09-09T01:47:08;100032.00;;;14.39;100.00
32638;BME280;19045;52.268;10.506;2022-09-09T01:49:35;100026.00;;;14.42;100.00
32638;BME280;19045;52.268;10.506;2022-09-09T01:52:03;100024.22;;;14.33;100.00
32638;BME280;19045;52.268;10.506;2022-09-09T01:54:31;100019.66;;;14.33;100.00
32638;BME280;19045;52.268;10.506;2022-09-09T01:57:06;100016.09;;;14.33;100.00
32638;BME280;19045;52.268;10.506;2022-09-09T01:59:47;100014.25;;;14.33;100.00
32638;BME280;19045;52.268;10.506;2022-09-09T02:02:18;100014.28;;;14.28;100.00
32638;BME280;19045;52.268;10.506;2022-09-09T02:04:47;100020.56;;;14.24;100.00
32638;BME280;19045;52.268;10.506;2022-09-09T02:07:34;100022.53;;;14.18;100.00
32638;BME280;19045;52.268;10.506;2022-09-09T02:10:10;100024.66;;;14.21;100.00
32638;BME280;19045;52.268;10.506;2022-09-09T02:12:40;100023.84;;;14.21;100.00
32638;BME280;19045;52.268;10.506;2022-09-09T02:15:15;100018.28;;;14.12;100.00
32638;BME280;19045;52.268;10.506;2022-09-09T02:17:46;100028.56;;;14.10;100.00
32638;BME280;19045;52.268;10.506;2022-09-09T02:20:14;100027.19;;;14.13;100.00
32638;BME280;19045;52.268;10.506;2022-09-09T02:22:44;100022.47;;;14.23;100.00
32638;BME280;19045;52.268;10.506;2022-09-09T02:25:14;100028.38;;;14.25;100.00
32638;BME280;19045;52.268;10.506;2022-09-09T02:27:43;100015.59;;;14.31;100.00
32638;BME280;19045;52.268;10.506;2022-09-09T02:30:12;100022.06;;;14.35;100.00
32638;BME280;19045;52.268;10.506;2022-09-09T02:32:41;100018.88;;;14.28;100.00
32638;BME280;19045;52.268;10.506;2022-09-09T02:35:11;100011.06;;;14.26;100.00
32638;BME280;19045;52.268;10.506;2022-09-09T02:37:39;100014.78;;;14.30;100.00
32638;BME280;19045;52.268;10.506;2022-09-09T02:40:11;100015.28;;;14.32;100.00
32638;BME280;19045;52.268;10.506;2022-09-09T02:42:39;100017.75;;;14.34;100.00
32638;BME280;19045;52.268;10.506;2022-09-09T02:45:08;100014.16;;;14.38;100.00
32638;BME280;19045;52.268;10.506;2022-09-09T02:47:35;100018.47;;;14.39;100.00
32638;BME280;19045;52.268;10.506;2022-09-09T02:50:11;100012.25;;;14.39;100.00
32638;BME280;19045;52.268;10.506;2022-09-09T02:52:45;100016.84;;;14.38;100.00
32638;BME280;19045;52.268;10.506;2022-09-09T02:55:18;100013.16;;;14.34;100.00
32638;BME280;19045;52.268;10.506;2022-09-09T02:57:47;100016.09;;;14.33;100.00
32638;BME280;19045;52.268;10.506;2022-09-09T03:00:15;100018.78;;;14.38;100.00
32638;BME280;19045;52.268;10.506;2022-09-09T03:02:41;100012.91;;;14.31;100.00
32638;BME280;19045;52.268;10.506;2022-09-09T03:05:08;100017.19;;;14.32;100.00
32638;BME280;19045;52.268;10.506;2022-09-09T03:07:35;100016.94;;;14.33;100.00
32638;BME280;19045;52.268;10.506;2022-09-09T03:10:02;100009.06;;;14.37;100.00
32638;BME280;19045;52.268;10.506;2022-09-09T03:12:30;100009.88;;;14.37;100.00
32638;BME280;19045;52.268;10.506;2022-09-09T03:14:58;100007.28;;;14.27;100.00
32638;BME280;19045;52.268;10.506;2022-09-09T03:17:25;100008.09;;;14.28;100.00
32638;BME280;19045;52.268;10.506;2022-09-09T03:19:53;100017.06;;;14.23;100.00
32638;BME280;19045;52.268;10.506;2022-09-09T03:22:20;100023.31;;;14.19;100.00
32638;BME280;19045;52.268;10.506;2022-09-09T03:24:47;100021.16;;;14.21;100.00
32638;BME280;19045;52.268;10.506;2022-09-09T03:27:13;100014.97;;;14.15;100.00
32638;BME280;19045;52.268;10.506;2022-09-09T03:29:42;100022.59;;;14.13;100.00
32638;BME280;19045;52.268;10.506;2022-09-09T03:32:10;100020.63;;;14.19;100.00
32638;BME280;19045;52.268;10.506;2022-09-09T03:34:37;100019.75;;;14.23;100.00
32638;BME280;19045;52.268;10.506;2022-09-09T03:37:05;100022.97;;;14.25;100.00
32638;BME280;19045;52.268;10.506;2022-09-09T03:39:32;100027.28;;;14.26;100.00
32638;BME280;19045;52.268;10.506;2022-09-09T03:41:58;100029.16;;;14.26;100.00
32638;BME280;19045;52.268;10.506;2022-09-09T03:44:29;100029.13;;;14.31;100.00
32638;BME280;19045;52.268;10.506;2022-09-09T03:46:57;100026.09;;;14.32;100.00
32638;BME280;19045;52.268;10.506;2022-09-09T03:49:26;100023.97;;;14.34;100.00
32638;BME280;19045;52.268;10.506;2022-09-09T03:51:54;100016.22;;;14.46;100.00
32638;BME280;19045;52.268;10.506;2022-09-09T03:54:22;100014.09;;;14.43;100.00
32638;BME280;19045;52.268;10.506;2022-09-09T03:56:48;100013.88;;;14.40;100.00
32638;BME280;19045;52.268;10.506;2022-09-09T03:59:15;100014.31;;;14.47;100.00
32638;BME280;19045;52.268;10.506;2022-09-09T04:01:42;100017.31;;;14.45;100.00
32638;BME280;19045;52.268;10.506;2022-09-09T04:04:11;100011.03;;;14.50;100.00
32638;BME280;19045;52.268;10.506;2022-09-09T04:06:38;100019.03;;;14.55;100.00
32638;BME280;19045;52.268;10.506;2022-09-09T04:09:04;100013.63;;;14.55;100.00
32638;BME280;19045;52.268;10.506;2022-09-09T04:11:31;100015.47;;;14.60;100.00
32638;BME280;19045;52.268;10.506;2022-09-09T04:13:58;100013.59;;;14.60;100.00
32638;BME280;19045;52.268;10.506;2022-09-09T04:16:25;100014.75;;;14.54;100.00
32638;BME280;19045;52.268;10.506;2022-09-09T04:18:52;100016.06;;;14.57;100.00
32638;BME280;19045;52.268;10.506;2022-09-09T04:21:20;100023.09;;;14.58;100.00
32638;BME280;19045;52.268;10.506;2022-09-09T04:23:48;100016.88;;;14.57;100.00
32638;BME280;19045;52.268;10.506;2022-09-09T04:26:15;100021.97;;;14.59;100.00
32638;BME280;19045;52.268;10.506;2022-09-09T04:28:41;100023.00;;;14.63;100.00
32638;BME280;19045;52.268;10.506;2022-09-09T04:31:10;100025.91;;;14.66;100.00
32638;BME280;19045;52.268;10.506;2022-09-09T04:33:37;100030.47;;;14.71;100.00
32638;BME280;19045;52.268;10.506;2022-09-09T04:36:05;100022.25;;;14.76;100.00
32638;BME280;19045;52.268;10.506;2022-09-09T04:38:33;100021.75;;;14.74;100.00
32638;BME280;19045;52.268;10.506;2022-09-09T04:41:00;100026.56;;;14.77;100.00
32638;BME280;19045;52.268;10.506;2022-09-09T04:43:27;100025.81;;;14.90;100.00
32638;BME280;19045;52.268;10.506;2022-09-09T04:45:53;100026.91;;;14.89;100.00
32638;BME280;19045;52.268;10.506;2022-09-09T04:48:21;100035.25;;;14.92;100.00
32638;BME280;19045;52.268;10.506;2022-09-09T04:50:55;100031.13;;;14.95;100.00
32638;BME280;19045;52.268;10.506;2022-09-09T04:53:22;100032.38;;;15.02;100.00
32638;BME280;19045;52.268;10.506;2022-09-09T04:55:50;100038.66;;;14.98;100.00
32638;BME280;19045;52.268;10.506;2022-09-09T04:58:16;100039.09;;;15.05;100.00
32638;BME280;19045;52.268;10.506;2022-09-09T05:00:43;100033.69;;;15.05;100.00
32638;BME280;19045;52.268;10.506;2022-09-09T05:03:10;100039.69;;;15.02;100.00
32638;BME280;19045;52.268;10.506;2022-09-09T05:05:38;100046.13;;;15.06;100.00
32638;BME280;19045;52.268;10.506;2022-09-09T05:08:06;100045.63;;;15.04;100.00
32638;BME280;19045;52.268;10.506;2022-09-09T05:10:34;100030.38;;;15.08;100.00
32638;BME280;19045;52.268;10.506;2022-09-09T05:13:04;100045.53;;;15.09;100.00
32638;BME280;19045;52.268;10.506;2022-09-09T05:15:31;100043.34;;;15.11;100.00
32638;BME280;19045;52.268;10.506;2022-09-09T05:17:59;100043.56;;;15.28;100.00
32638;BME280;19045;52.268;10.506;2022-09-09T05:20:26;100032.44;;;15.30;100.00
32638;BME280;19045;52.268;10.506;2022-09-09T05:22:53;100032.78;;;15.42;100.00
32638;BME280;19045;52.268;10.506;2022-09-09T05:25:20;100037.22;;;15.51;100.00
32638;BME280;19045;52.268;10.506;2022-09-09T05:27:47;100037.16;;;15.57;100.00
32638;BME280;19045;52.268;10.506;2022-09-09T05:30:16;100042.97;;;15.64;100.00
32638;BME280;19045;52.268;10.506;2022-09-09T05:32:44;100042.25;;;15.72;100.00
32638;BME280;19045;52.268;10.506;2022-09-09T05:35:13;100048.88;;;15.79;100.00
32638;BME280;19045;52.268;10.506;2022-09-09T05:37:39;100045.09;;;15.80;100.00
32638;BME280;19045;52.268;10.506;2022-09-09T05:40:07;100050.91;;;15.87;100.00
32638;BME280;19045;52.268;10.506;2022-09-09T05:42:33;100053.09;;;15.85;100.00
32638;BME280;19045;52.268;10.506;2022-09-09T05:45:00;100060.41;;;15.85;100.00
32638;BME280;19045;52.268;10.506;2022-09-09T05:47:28;100059.53;;;15.89;100.00
32638;BME280;19045;52.268;10.506;2022-09-09T05:49:55;100056.91;;;15.84;100.00
32638;BME280;19045;52.268;10.506;2022-09-09T05:52:21;100057.72;;;15.85;100.00
32638;BME280;19045;52.268;10.506;2022-09-09T05:54:49;100062.94;;;15.81;100.00
32638;BME280;19045;52.268;10.506;2022-09-09T05:57:15;100064.34;;;15.79;100.00
32638;BME280;19045;52.268;10.506;2022-09-09T05:59:42;100069.94;;;15.69;100.00
32638;BME280;19045;52.268;10.506;2022-09-09T06:02:09;100062.84;;;15.73;100.00
32638;BME280;19045;52.268;10.506;2022-09-09T06:04:37;100067.56;;;15.67;100.00
32638;BME280;19045;52.268;10.506;2022-09-09T06:07:04;100065.94;;;15.66;100.00
32638;BME280;19045;52.268;10.506;2022-09-09T06:09:30;100067.75;;;15.71;100.00
32638;BME280;19045;52.268;10.506;2022-09-09T06:11:57;100072.47;;;15.79;100.00
32638;BME280;19045;52.268;10.506;2022-09-09T06:14:24;100070.38;;;15.89;100.00
32638;BME280;19045;52.268;10.506;2022-09-09T06:16:52;100063.53;;;16.06;100.00
32638;BME280;19045;52.268;10.506;2022-09-09T06:19:19;100064.75;;;16.13;100.00
32638;BME280;19045;52.268;10.506;2022-09-09T06:21:47;100072.06;;;16.26;100.00
32638;BME280;19045;52.268;10.506;2022-09-09T06:24:15;100073.44;;;16.37;99.10
32638;BME280;19045;52.268;10.506;2022-09-09T06:26:44;100075.81;;;16.52;98.36
32638;BME280;19045;52.268;10.506;2022-09-09T06:29:11;100070.47;;;16.75;96.72
32638;BME280;19045;52.268;10.506;2022-09-09T06:31:38;100076.50;;;16.72;95.29
32638;BME280;19045;52.268;10.506;2022-09-09T06:34:05;100079.31;;;16.80;95.29
32638;BME280;19045;52.268;10.506;2022-09-09T06:36:34;100078.13;;;16.95;95.46
32638;BME280;19045;52.268;10.506;2022-09-09T06:39:03;100076.31;;;17.26;93.54
32638;BME280;19045;52.268;10.506;2022-09-09T06:41:31;100069.84;;;17.44;90.96
32638;BME280;19045;52.268;10.506;2022-09-09T06:43:59;100084.69;;;17.38;91.18
32638;BME280;19045;52.268;10.506;2022-09-09T06:46:27;100073.63;;;17.35;91.80
32638;BME280;19045;52.268;10.506;2022-09-09T06:48:56;100075.88;;;17.33;92.98
32638;BME280;19045;52.268;10.506;2022-09-09T06:51:26;100066.28;;;17.35;92.27
32638;BME280;19045;52.268;10.506;2022-09-09T06:53:54;100081.03;;;17.43;92.45
32638;BME280;19045;52.268;10.506;2022-09-09T06:56:25;100068.94;;;17.49;92.16
32638;BME280;19045;52.268;10.506;2022-09-09T06:58:54;100074.16;;;17.68;92.01
32638;BME280;19045;52.268;10.506;2022-09-09T07:01:22;100067.50;;;18.30;88.33
32638;BME280;19045;52.268;10.506;2022-09-09T07:03:50;100069.34;;;18.95;84.85
32638;BME280;19045;52.268;10.506;2022-09-09T07:06:19;100063.50;;;19.65;82.60
32638;BME280;19045;52.268;10.506;2022-09-09T07:08:50;100057.63;;;20.22;80.58
32638;BME280;19045;52.268;10.506;2022-09-09T07:11:18;100063.34;;;20.58;77.80
32638;BME280;19045;52.268;10.506;2022-09-09T07:13:47;100053.16;;;20.67;75.53
32638;BME280;19045;52.268;10.506;2022-09-09T07:16:16;100061.25;;;20.76;74.24
32638;BME280;19045;52.268;10.506;2022-09-09T07:18:43;100063.38;;;20.49;75.30
32638;BME280;19045;52.268;10.506;2022-09-09T07:21:11;100061.09;;;20.01;77.30
32638;BME280;19045;52.268;10.506;2022-09-09T07:23:39;100062.28;;;19.83;78.74
32638;BME280;19045;52.268;10.506;2022-09-09T07:26:10;100065.44;;;19.94;78.59
32638;BME280;19045;52.268;10.506;2022-09-09T07:28:37;100060.59;;;20.37;78.82
32638;BME280;19045;52.268;10.506;2022-09-09T07:31:06;100063.13;;;20.84;74.52
32638;BME280;19045;52.268;10.506;2022-09-09T07:33:34;100064.03;;;21.08;73.96
32638;BME280;19045;52.268;10.506;2022-09-09T07:36:06;100069.94;;;21.31;72.28
32638;BME280;19045;52.268;10.506;2022-09-09T07:38:38;100067.97;;;21.64;72.19
32638;BME280;19045;52.268;10.506;2022-09-09T07:41:07;100070.13;;;22.04;68.69
32638;BME280;19045;52.268;10.506;2022-09-09T07:43:37;100059.25;;;21.95;67.40
32638;BME280;19045;52.268;10.506;2022-09-09T07:46:06;100066.66;;;21.38;70.01
32638;BME280;19045;52.268;10.506;2022-09-09T07:48:33;100074.22;;;20.37;72.34
32638;BME280;19045;52.268;10.506;2022-09-09T07:51:08;100073.34;;;19.87;75.92
32638;BME280;19045;52.268;10.506;2022-09-09T07:53:36;100072.47;;;20.03;74.96
32638;BME280;19045;52.268;10.506;2022-09-09T07:56:05;100071.00;;;20.65;72.27
32638;BME280;19045;52.268;10.506;2022-09-09T07:58:32;100067.72;;;20.50;71.32
32638;BME280;19045;52.268;10.506;2022-09-09T08:00:59;100066.81;;;20.88;70.15
32638;BME280;19045;52.268;10.506;2022-09-09T08:03:27;100069.84;;;20.66;71.75
32638;BME280;19045;52.268;10.506;2022-09-09T08:06:00;100067.78;;;20.62;70.79
32638;BME280;19045;52.268;10.506;2022-09-09T08:08:27;100070.84;;;20.40;71.26
32638;BME280;19045;52.268;10.506;2022-09-09T08:11:01;100067.97;;;20.37;71.28
32638;BME280;19045;52.268;10.506;2022-09-09T08:13:28;100072.53;;;20.16;72.52
32638;BME280;19045;52.268;10.506;2022-09-09T08:16:04;100085.50;;;19.89;74.09
32638;BME280;19045;52.268;10.506;2022-09-09T08:18:33;100092.31;;;19.75;76.04
32638;BME280;19045;52.268;10.506;2022-09-09T08:21:06;100090.63;;;19.44;75.86
32638;BME280;19045;52.268;10.506;2022-09-09T08:23:33;100097.69;;;19.28;76.37
32638;BME280;19045;52.268;10.506;2022-09-09T08:26:04;100097.69;;;19.11;77.36
32638;BME280;19045;52.268;10.506;2022-09-09T08:28:31;100097.06;;;19.05;77.98
32638;BME280;19045;52.268;10.506;2022-09-09T08:31:05;100093.53;;;18.88;79.28
32638;BME280;19045;52.268;10.506;2022-09-09T08:33:33;100108.25;;;18.87;80.26
32638;BME280;19045;52.268;10.506;2022-09-09T08:36:01;100105.53;;;18.87;79.53
32638;BME280;19045;52.268;10.506;2022-09-09T08:38:28;100105.38;;;19.09;79.59
32638;BME280;19045;52.268;10.506;2022-09-09T08:40:59;100099.78;;;19.86;76.30
32638;BME280;19045;52.268;10.506;2022-09-09T08:43:29;100097.59;;;20.18;73.42
32638;BME280;19045;52.268;10.506;2022-09-09T08:46:02;100099.38;;;21.46;67.74
32638;BME280;19045;52.268;10.506;2022-09-09T08:48:43;100101.25;;;23.00;62.48
32638;BME280;19045;52.268;10.506;2022-09-09T08:51:13;100110.91;;;22.70;62.47
32638;BME280;19045;52.268;10.506;2022-09-09T08:53:43;100117.75;;;22.03;62.80
32638;BME280;19045;52.268;10.506;2022-09-09T08:56:14;100104.06;;;22.39;61.93
32638;BME280;19045;52.268;10.506;2022-09-09T08:58:44;100104.94;;;22.80;60.57
32638;BME280;19045;52.268;10.506;2022-09-09T09:01:26;100106.84;;;21.70;62.72
32638;BME280;19045;52.268;10.506;2022-09-09T09:04:03;100111.81;;;22.37;61.59
32638;BME280;19045;52.268;10.506;2022-09-09T09:06:44;100106.56;;;22.44;63.46
32638;BME280;19045;52.268;10.506;2022-09-09T09:09:21;100104.25;;;22.71;62.09
32638;BME280;19045;52.268;10.506;2022-09-09T09:11:51;100095.81;;;22.76;61.66
32638;BME280;19045;52.268;10.506;2022-09-09T09:14:21;100102.22;;;22.80;62.69
32638;BME280;19045;52.268;10.506;2022-09-09T09:16:51;100106.03;;;23.58;58.41
32638;BME280;19045;52.268;10.506;2022-09-09T09:19:21;100092.00;;;24.23;56.05
32638;BME280;19045;52.268;10.506;2022-09-09T09:21:54;100093.66;;;26.49;50.41
32638;BME280;19045;52.268;10.506;2022-09-09T09:24:27;100099.50;;;26.17;48.74
32638;BME280;19045;52.268;10.506;2022-09-09T09:26:59;100101.34;;;26.13;48.11
32638;BME280;19045;52.268;10.506;2022-09-09T09:29:34;100098.09;;;27.46;45.69
32638;BME280;19045;52.268;10.506;2022-09-09T09:32:02;100102.75;;;27.09;45.75
32638;BME280;19045;52.268;10.506;2022-09-09T09:34:31;100106.97;;;27.33;44.99
32638;BME280;19045;52.268;10.506;2022-09-09T09:36:59;100092.22;;;27.92;43.45
32638;BME280;19045;52.268;10.506;2022-09-09T09:39:28;100110.63;;;27.07;46.24
32638;BME280;19045;52.268;10.506;2022-09-09T09:41:56;100094.25;;;25.25;50.21
32638;BME280;19045;52.268;10.506;2022-09-09T09:44:28;100103.47;;;23.97;53.47
32638;BME280;19045;52.268;10.506;2022-09-09T09:47:06;100102.44;;;23.86;56.82
32638;BME280;19045;52.268;10.506;2022-09-09T09:49:34;100090.09;;;26.48;48.34
32638;BME280;19045;52.268;10.506;2022-09-09T09:52:01;100086.91;;;27.72;45.07
32638;BME280;19045;52.268;10.506;2022-09-09T09:54:29;100096.84;;;28.83;42.61
32638;BME280;19045;52.268;10.506;2022-09-09T09:57:08;100090.91;;;26.49;46.48
32638;BME280;19045;52.268;10.506;2022-09-09T09:59:36;100090.50;;;24.25;53.11
32638;BME280;19045;52.268;10.506;2022-09-09T10:02:15;100096.34;;;23.21;55.73
32638;BME280;19045;52.268;10.506;2022-09-09T10:04:44;100093.81;;;23.28;57.05
32638;BME280;19045;52.268;10.506;2022-09-09T10:07:12;100084.38;;;23.85;55.66
32638;BME280;19045;52.268;10.506;2022-09-09T10:09:40;100078.31;;;27.81;46.42
32638;BME280;19045;52.268;10.506;2022-09-09T10:12:15;100067.44;;;31.50;38.31
32638;BME280;19045;52.268;10.506;2022-09-09T10:14:55;100072.66;;;32.41;35.39
32638;BME280;19045;52.268;10.506;2022-09-09T10:17:30;100062.28;;;33.43;33.98
32638;BME280;19045;52.268;10.506;2022-09-09T10:20:15;100054.13;;;34.28;31.63
32638;BME280;19045;52.268;10.506;2022-09-09T10:22:48;100062.22;;;30.76;37.07
32638;BME280;19045;52.268;10.506;2022-09-09T10:25:26;100061.41;;;30.83;37.00
32638;BME280;19045;52.268;10.506;2022-09-09T10:28:10;100062.06;;;31.22;36.90
32638;BME280;19045;52.268;10.506;2022-09-09T10:30:50;100062.38;;;30.02;37.67
32638;BME280;19045;52.268;10.506;2022-09-09T10:33:26;100038.53;;;30.40;37.30
32638;BME280;19045;52.268;10.506;2022-09-09T10:36:04;100047.88;;;28.94;39.52
32638;BME280;19045;52.268;10.506;2022-09-09T10:38:40;100052.75;;;28.42;41.40
32638;BME280;19045;52.268;10.506;2022-09-09T10:41:32;100047.88;;;28.21;41.52
32638;BME280;19045;52.268;10.506;2022-09-09T10:44:14;100051.44;;;27.34;43.07
32638;BME280;19045;52.268;10.506;2022-09-09T10:46:52;100048.50;;;27.97;42.28
32638;BME280;19045;52.268;10.506;2022-09-09T10:49:32;100042.91;;;29.45;39.31
32638;BME280;19045;52.268;10.506;2022-09-09T10:52:10;100057.16;;;28.54;40.84
32638;BME280;19045;52.268;10.506;2022-09-09T10:54:48;100049.13;;;27.03;43.03
32638;BME280;19045;52.268;10.506;2022-09-09T10:57:25;100050.91;;;24.99;48.48
32638;BME280;19045;52.268;10.506;2022-09-09T10:59:57;100038.88;;;23.84;52.73
32638;BME280;19045;52.268;10.506;2022-09-09T11:02:28;100041.84;;;23.04;55.40
32638;BME280;19045;52.268;10.506;2022-09-09T11:04:58;100041.81;;;22.24;58.92
32638;BME280;19045;52.268;10.506;2022-09-09T11:07:34;100036.78;;;22.14;57.82
32638;BME280;19045;52.268;10.506;2022-09-09T11:10:11;100036.09;;;21.69;59.40
32638;BME280;19045;52.268;10.506;2022-09-09T11:12:44;100027.97;;;21.48;60.79
32638;BME280;19045;52.268;10.506;2022-09-09T11:15:17;100026.47;;;21.38;61.46
32638;BME280;19045;52.268;10.506;2022-09-09T11:17:49;100028.19;;;21.43;61.60
32638;BME280;19045;52.268;10.506;2022-09-09T11:20:16;100034.81;;;21.54;61.48
32638;BME280;19045;52.268;10.506;2022-09-09T11:22:48;100034.28;;;22.33;59.07
32638;BME280;19045;52.268;10.506;2022-09-09T11:25:19;100033.50;;;22.08;59.63
32638;BME280;19045;52.268;10.506;2022-09-09T11:28:04;100031.84;;;21.59;61.79
32638;BME280;19045;52.268;10.506;2022-09-09T11:30:45;100035.63;;;21.09;64.98
32638;BME280;19045;52.268;10.506;2022-09-09T11:33:29;100042.00;;;20.72;67.69
32638;BME280;19045;52.268;10.506;2022-09-09T11:36:11;100048.53;;;21.00;67.53
32638;BME280;19045;52.268;10.506;2022-09-09T11:38:46;100046.13;;;20.99;68.11
32638;BME280;19045;52.268;10.506;2022-09-09T11:41:16;100050.22;;;20.51;69.50
32638;BME280;19045;52.268;10.506;2022-09-09T11:43:45;100055.88;;;20.46;71.11
32638;BME280;19045;52.268;10.506;2022-09-09T11:46:15;100055.06;;;20.67;67.82
32638;BME280;19045;52.268;10.506;2022-09-09T11:48:44;100055.03;;;20.54;65.69
32638;BME280;19045;52.268;10.506;2022-09-09T11:51:13;100056.91;;;20.33;67.15
32638;BME280;19045;52.268;10.506;2022-09-09T11:53:52;100053.88;;;20.55;66.28
32638;BME280;19045;52.268;10.506;2022-09-09T11:56:28;100050.34;;;20.76;64.07
32638;BME280;19045;52.268;10.506;2022-09-09T11:59:00;100050.66;;;20.33;64.70
32638;BME280;19045;52.268;10.506;2022-09-09T12:01:34;100054.63;;;20.65;63.91
32638;BME280;19045;52.268;10.506;2022-09-09T12:04:11;100052.03;;;21.79;61.60
32638;BME280;19045;52.268;10.506;2022-09-09T12:06:44;100032.16;;;24.66;53.04
32638;BME280;19045;52.268;10.506;2022-09-09T12:09:22;100031.56;;;26.29;46.67
32638;BME280;19045;52.268;10.506;2022-09-09T12:11:50;100021.31;;;26.55;46.78
32638;BME280;19045;52.268;10.506;2022-09-09T12:14:21;100019.88;;;26.35;46.44
32638;BME280;19045;52.268;10.506;2022-09-09T12:16:49;100008.50;;;25.42;48.09
32638;BME280;19045;52.268;10.506;2022-09-09T12:19:18;100013.31;;;25.03;49.50
32638;BME280;19045;52.268;10.506;2022-09-09T12:21:53;100009.50;;;24.89;51.01
32638;BME280;19045;52.268;10.506;2022-09-09T12:24:29;100004.13;;;24.07;54.03
32638;BME280;19045;52.268;10.506;2022-09-09T12:27:06;100018.41;;;24.47;54.39
32638;BME280;19045;52.268;10.506;2022-09-09T12:29:42;100030.72;;;25.11;51.97
32638;BME280;19045;52.268;10.506;2022-09-09T12:32:11;100025.09;;;25.04;49.88
32638;BME280;19045;52.268;10.506;2022-09-09T12:34:40;100016.28;;;25.37;50.08
32638;BME280;19045;52.268;10.506;2022-09-09T12:37:21;100017.59;;;25.65;50.18
32638;BME280;19045;52.268;10.506;2022-09-09T12:39:55;100025.47;;;25.90;50.79
32638;BME280;19045;52.268;10.506;2022-09-09T12:42:22;100021.47;;;25.61;51.73
32638;BME280;19045;52.268;10.506;2022-09-09T12:44:53;100017.56;;;25.43;51.78
32638;BME280;19045;52.268;10.506;2022-09-09T12:47:24;100016.78;;;25.00;52.27
32638;BME280;19045;52.268;10.506;2022-09-09T12:49:52;100026.41;;;24.37;52.81
32638;BME280;19045;52.268;10.506;2022-09-09T12:52:26;100017.00;;;24.18;54.40
32638;BME280;19045;52.268;10.506;2022-09-09T12:54:57;100013.53;;;24.76;53.46